sensor_id;sensor_type;location;lat;lon;timestamp;pressure;altitude;pressure_sealevel;temperature;humidity
48053;BME280;33824;51.600;5.718;2022-09-03T00:00:29;100924.75;;;17.27;47.58
48053;BME280;33824;51.600;5.718;2022-09-03T00:05:59;100918.94;;;17.23;47.98
48053;BME280;33824;51.600;5.718;2022-09-03T00:08:42;100916.69;;;17.27;47.67
48053;BME280;33824;51.600;5.718;2022-09-03T00:11:20;100920.84;;;17.23;48.17
48053;BME280;33824;51.600;5.718;2022-09-03T00:13:53;100916.88;;;17.25;47.77
48053;BME280;33824;51.600;5.718;2022-09-03T00:16:24;100918.94;;;17.30;47.84
48053;BME280;33824;51.600;5.718;2022-09-03T00:19:00;100918.94;;;17.23;48.27
48053;BME280;33824;51.600;5.718;2022-09-03T00:21:36;100924.97;;;17.25;48.05
48053;BME280;33824;51.600;5.718;2022-09-03T00:24:04;100927.84;;;17.31;47.95
48053;BME280;33824;51.600;5.718;2022-09-03T00:26:33;100922.66;;;17.29;48.02
48053;BME280;33824;51.600;5.718;2022-09-03T00:29:22;100922.31;;;17.19;48.76
48053;BME280;33824;51.600;5.718;2022-09-03T00:31:55;100918.56;;;17.20;48.41
48053;BME280;33824;51.600;5.718;2022-09-03T00:34:33;100914.00;;;17.20;48.48
48053;BME280;33824;51.600;5.718;2022-09-03T00:37:00;100919.63;;;17.19;48.49
48053;BME280;33824;51.600;5.718;2022-09-03T00:39:27;100927.06;;;17.17;48.36
48053;BME280;33824;51.600;5.718;2022-09-03T00:42:16;100923.63;;;17.03;49.09
48053;BME280;33824;51.600;5.718;2022-09-03T00:50:14;100923.03;;;16.95;49.38
48053;BME280;33824;51.600;5.718;2022-09-03T00:53:03;100929.69;;;16.92;49.32
48053;BME280;33824;51.600;5.718;2022-09-03T00:55:55;100920.78;;;16.92;49.29
48053;BME280;33824;51.600;5.718;2022-09-03T01:01:22;100921.97;;;17.02;49.14
48053;BME280;33824;51.600;5.718;2022-09-03T01:04:10;100931.31;;;17.00;49.37
48053;BME280;33824;51.600;5.718;2022-09-03T01:07:07;100925.53;;;16.96;49.63
48053;BME280;33824;51.600;5.718;2022-09-03T01:09:53;100924.91;;;16.94;49.61
48053;BME280;33824;51.600;5.718;2022-09-03T01:12:30;100924.69;;;16.96;49.69
48053;BME280;33824;51.600;5.718;2022-09-03T01:15:16;100914.59;;;16.85;49.86
48053;BME280;33824;51.600;5.718;2022-09-03T01:20:50;100916.66;;;16.83;49.60
48053;BME280;33824;51.600;5.718;2022-09-03T01:26:27;100922.06;;;16.76;50.29
48053;BME280;33824;51.600;5.718;2022-09-03T01:29:22;100916.72;;;16.69;50.61
48053;BME280;33824;51.600;5.718;2022-09-03T01:46:07;100930.59;;;16.53;50.37
48053;BME280;33824;51.600;5.718;2022-09-03T01:48:44;100925.25;;;16.47;50.63
48053;BME280;33824;51.600;5.718;2022-09-03T01:51:26;100926.06;;;16.41;51.02
48053;BME280;33824;51.600;5.718;2022-09-03T01:54:13;100924.63;;;16.38;51.30
48053;BME280;33824;51.600;5.718;2022-09-03T01:59:50;100923.19;;;16.29;51.20
48053;BME280;33824;51.600;5.718;2022-09-03T02:02:24;100926.91;;;16.35;51.04
48053;BME280;33824;51.600;5.718;2022-09-03T02:05:13;100927.53;;;16.30;51.48
48053;BME280;33824;51.600;5.718;2022-09-03T02:07:42;100921.75;;;16.40;51.36
48053;BME280;33824;51.600;5.718;2022-09-03T02:10:15;100930.84;;;16.39;51.31
48053;BME280;33824;51.600;5.718;2022-09-03T02:12:45;100917.59;;;16.37;51.14
48053;BME280;33824;51.600;5.718;2022-09-03T02:15:15;100923.59;;;16.39;51.18
48053;BME280;33824;51.600;5.718;2022-09-03T02:17:43;100915.09;;;16.42;51.38
48053;BME280;33824;51.600;5.718;2022-09-03T02:20:15;100913.84;;;16.38;51.53
48053;BME280;33824;51.600;5.718;2022-09-03T02:22:44;100910.75;;;16.41;51.46
48053;BME280;33824;51.600;5.718;2022-09-03T02:25:11;100909.31;;;16.39;51.49
48053;BME280;33824;51.600;5.718;2022-09-03T02:27:37;100916.56;;;16.38;51.42
48053;BME280;33824;51.600;5.718;2022-09-03T02:30:03;100909.94;;;16.34;51.50
48053;BME280;33824;51.600;5.718;2022-09-03T02:32:29;100910.13;;;16.32;51.66
48053;BME280;33824;51.600;5.718;2022-09-03T02:34:56;100909.53;;;16.30;51.76
48053;BME280;33824;51.600;5.718;2022-09-03T02:37:22;100914.91;;;16.30;51.56
48053;BME280;33824;51.600;5.718;2022-09-03T02:39:48;100910.78;;;16.28;51.59
48053;BME280;33824;51.600;5.718;2022-09-03T02:42:16;100920.91;;;16.26;51.74
48053;BME280;33824;51.600;5.718;2022-09-03T02:44:47;100911.84;;;16.20;51.84
48053;BME280;33824;51.600;5.718;2022-09-03T02:47:14;100907.69;;;15.92;52.10
48053;BME280;33824;51.600;5.718;2022-09-03T02:49:40;100913.06;;;16.11;51.98
48053;BME280;33824;51.600;5.718;2022-09-03T02:52:07;100909.75;;;16.16;51.76
48053;BME280;33824;51.600;5.718;2022-09-03T02:54:38;100910.78;;;16.15;52.00
48053;BME280;33824;51.600;5.718;2022-09-03T02:57:13;100913.91;;;16.12;52.25
48053;BME280;33824;51.600;5.718;2022-09-03T02:59:40;100909.53;;;16.17;51.76
48053;BME280;33824;51.600;5.718;2022-09-03T03:02:09;100908.94;;;16.15;52.05
48053;BME280;33824;51.600;5.718;2022-09-03T03:04:35;100911.63;;;16.15;51.99
48053;BME280;33824;51.600;5.718;2022-09-03T03:07:00;100907.50;;;16.13;52.05
48053;BME280;33824;51.600;5.718;2022-09-03T03:09:26;100910.97;;;16.13;52.33
48053;BME280;33824;51.600;5.718;2022-09-03T03:11:51;100906.44;;;16.14;52.38
48053;BME280;33824;51.600;5.718;2022-09-03T03:14:19;100902.72;;;16.15;52.19
48053;BME280;33824;51.600;5.718;2022-09-03T03:16:44;100906.03;;;16.17;52.18
48053;BME280;33824;51.600;5.718;2022-09-03T03:19:10;100905.22;;;16.16;52.05
48053;BME280;33824;51.600;5.718;2022-09-03T03:21:35;100905.22;;;16.16;52.24
48053;BME280;33824;51.600;5.718;2022-09-03T03:24:01;100904.38;;;16.16;52.26
48053;BME280;33824;51.600;5.718;2022-09-03T03:26:27;100901.47;;;16.17;52.29
48053;BME280;33824;51.600;5.718;2022-09-03T03:28:58;100907.50;;;16.13;52.37
48053;BME280;33824;51.600;5.718;2022-09-03T03:31:24;100905.41;;;16.15;52.40
48053;BME280;33824;51.600;5.718;2022-09-03T03:33:53;100912.66;;;16.14;52.35
48053;BME280;33824;51.600;5.718;2022-09-03T03:36:21;100907.69;;;16.11;52.53
48053;BME280;33824;51.600;5.718;2022-09-03T03:38:47;100911.63;;;16.09;52.22
48053;BME280;33824;51.600;5.718;2022-09-03T03:41:21;100913.06;;;15.98;53.01
48053;BME280;33824;51.600;5.718;2022-09-03T03:43:51;100911.63;;;15.96;52.99
48053;BME280;33824;51.600;5.718;2022-09-03T03:46:17;100909.78;;;15.96;52.78
48053;BME280;33824;51.600;5.718;2022-09-03T03:48:42;100911.81;;;15.94;53.02
48053;BME280;33824;51.600;5.718;2022-09-03T03:51:09;100909.56;;;15.91;53.15
48053;BME280;33824;51.600;5.718;2022-09-03T03:53:36;100907.09;;;15.90;53.29
48053;BME280;33824;51.600;5.718;2022-09-03T03:56:04;100902.75;;;15.89;53.05
48053;BME280;33824;51.600;5.718;2022-09-03T03:58:32;100902.09;;;15.87;53.16
48053;BME280;33824;51.600;5.718;2022-09-03T04:01:16;100906.66;;;15.73;53.55
48053;BME280;33824;51.600;5.718;2022-09-03T04:03:42;100906.25;;;15.82;53.44
48053;BME280;33824;51.600;5.718;2022-09-03T04:06:10;100907.72;;;15.78;53.31
48053;BME280;33824;51.600;5.718;2022-09-03T04:08:38;100901.50;;;15.78;53.47
48053;BME280;33824;51.600;5.718;2022-09-03T04:11:06;100906.25;;;15.76;53.63
48053;BME280;33824;51.600;5.718;2022-09-03T04:13:37;100901.69;;;15.70;53.91
48053;BME280;33824;51.600;5.718;2022-09-03T04:16:09;100914.50;;;15.68;53.75
48053;BME280;33824;51.600;5.718;2022-09-03T04:18:35;100909.47;;;15.38;54.28
48053;BME280;33824;51.600;5.718;2022-09-03T04:21:02;100899.81;;;15.57;54.20
48053;BME280;33824;51.600;5.718;2022-09-03T04:23:29;100902.50;;;15.57;54.24
48053;BME280;33824;51.600;5.718;2022-09-03T04:25:55;100900.03;;;15.56;54.14
48053;BME280;33824;51.600;5.718;2022-09-03T04:28:21;100897.75;;;15.53;54.34
48053;BME280;33824;51.600;5.718;2022-09-03T04:30:46;100898.56;;;15.53;54.29
48053;BME280;33824;51.600;5.718;2022-09-03T04:33:12;100892.38;;;15.53;54.44
48053;BME280;33824;51.600;5.718;2022-09-03T04:35:37;100894.03;;;15.54;54.70
48053;BME280;33824;51.600;5.718;2022-09-03T04:38:05;100891.97;;;15.56;54.36
48053;BME280;33824;51.600;5.718;2022-09-03T04:40:32;100893.59;;;15.57;54.58
48053;BME280;33824;51.600;5.718;2022-09-03T04:42:58;100898.16;;;15.56;54.55
48053;BME280;33824;51.600;5.718;2022-09-03T04:45:26;100892.78;;;15.56;54.80
48053;BME280;33824;51.600;5.718;2022-09-03T04:47:57;100889.69;;;15.53;54.61
48053;BME280;33824;51.600;5.718;2022-09-03T04:50:23;100894.44;;;15.57;54.55
48053;BME280;33824;51.600;5.718;2022-09-03T04:52:48;100897.13;;;15.57;54.46
48053;BME280;33824;51.600;5.718;2022-09-03T04:55:15;100899.63;;;15.59;54.62
48053;BME280;33824;51.600;5.718;2022-09-03T04:57:41;100903.16;;;15.59;54.58
48053;BME280;33824;51.600;5.718;2022-09-03T05:00:07;100910.16;;;15.60;54.73
48053;BME280;33824;51.600;5.718;2022-09-03T05:02:36;100902.31;;;15.59;54.52
48053;BME280;33824;51.600;5.718;2022-09-03T05:05:02;100904.78;;;15.60;54.49
48053;BME280;33824;51.600;5.718;2022-09-03T05:07:29;100898.78;;;15.58;54.76
48053;BME280;33824;51.600;5.718;2022-09-03T05:10:07;100894.84;;;15.54;54.91
48053;BME280;33824;51.600;5.718;2022-09-03T05:12:33;100897.53;;;15.61;54.90
48053;BME280;33824;51.600;5.718;2022-09-03T05:14:59;100899.63;;;15.65;54.92
48053;BME280;33824;51.600;5.718;2022-09-03T05:17:25;100898.78;;;15.71;54.71
48053;BME280;33824;51.600;5.718;2022-09-03T05:19:51;100902.94;;;15.74;54.58
48053;BME280;33824;51.600;5.718;2022-09-03T05:22:17;100906.88;;;15.78;54.79
48053;BME280;33824;51.600;5.718;2022-09-03T05:24:46;100897.56;;;15.80;54.51
48053;BME280;33824;51.600;5.718;2022-09-03T05:27:13;100898.63;;;15.86;54.70
48053;BME280;33824;51.600;5.718;2022-09-03T05:29:44;100900.88;;;15.89;54.56
48053;BME280;33824;51.600;5.718;2022-09-03T05:32:11;100899.63;;;15.98;54.32
48053;BME280;33824;51.600;5.718;2022-09-03T05:34:41;100905.84;;;16.05;54.25
48053;BME280;33824;51.600;5.718;2022-09-03T05:37:07;100897.75;;;16.12;54.20
48053;BME280;33824;51.600;5.718;2022-09-03T05:39:33;100906.84;;;16.17;54.41
48053;BME280;33824;51.600;5.718;2022-09-03T05:41:58;100903.34;;;16.23;54.08
48053;BME280;33824;51.600;5.718;2022-09-03T05:44:23;100900.19;;;16.33;53.91
48053;BME280;33824;51.600;5.718;2022-09-03T05:46:49;100904.09;;;16.44;53.76
48053;BME280;33824;51.600;5.718;2022-09-03T05:49:16;100898.50;;;16.52;53.88
48053;BME280;33824;51.600;5.718;2022-09-03T05:51:41;100902.66;;;16.61;53.73
48053;BME280;33824;51.600;5.718;2022-09-03T05:54:09;100900.13;;;16.72;53.65
48053;BME280;33824;51.600;5.718;2022-09-03T05:56:36;100905.88;;;16.83;53.26
48053;BME280;33824;51.600;5.718;2022-09-03T05:59:04;100907.91;;;16.94;53.23
48053;BME280;33824;51.600;5.718;2022-09-03T06:01:38;100904.97;;;17.02;53.07
48053;BME280;33824;51.600;5.718;2022-09-03T06:04:06;100896.44;;;17.11;52.59
48053;BME280;33824;51.600;5.718;2022-09-03T06:06:36;100904.88;;;17.21;52.48
48053;BME280;33824;51.600;5.718;2022-09-03T06:09:07;100903.16;;;17.34;52.03
48053;BME280;33824;51.600;5.718;2022-09-03T06:11:34;100898.34;;;17.42;52.07
48053;BME280;33824;51.600;5.718;2022-09-03T06:14:02;100901.19;;;17.47;51.94
48053;BME280;33824;51.600;5.718;2022-09-03T06:16:31;100895.97;;;17.59;51.76
48053;BME280;33824;51.600;5.718;2022-09-03T06:18:57;100897.13;;;17.69;51.63
48053;BME280;33824;51.600;5.718;2022-09-03T06:21:23;100899.53;;;17.84;51.28
48053;BME280;33824;51.600;5.718;2022-09-03T06:23:50;100904.78;;;17.97;51.36
48053;BME280;33824;51.600;5.718;2022-09-03T06:26:16;100899.50;;;18.09;50.94
48053;BME280;33824;51.600;5.718;2022-09-03T06:28:42;100899.44;;;18.15;50.83
48053;BME280;33824;51.600;5.718;2022-09-03T06:31:13;100894.94;;;18.28;50.41
48053;BME280;33824;51.600;5.718;2022-09-03T06:33:40;100903.13;;;18.39;50.19
48053;BME280;33824;51.600;5.718;2022-09-03T06:36:09;100896.38;;;18.55;50.00
48053;BME280;33824;51.600;5.718;2022-09-03T06:38:36;100906.19;;;18.67;49.61
48053;BME280;33824;51.600;5.718;2022-09-03T06:41:05;100910.59;;;18.80;49.71
48053;BME280;33824;51.600;5.718;2022-09-03T06:43:32;100905.41;;;18.97;49.22
48053;BME280;33824;51.600;5.718;2022-09-03T06:46:01;100902.41;;;19.05;49.05
48053;BME280;33824;51.600;5.718;2022-09-03T06:48:28;100903.03;;;19.18;48.88
48053;BME280;33824;51.600;5.718;2022-09-03T06:53:34;100900.34;;;19.48;48.45
48053;BME280;33824;51.600;5.718;2022-09-03T06:56:02;100904.53;;;19.62;48.24
48053;BME280;33824;51.600;5.718;2022-09-03T06:58:36;100899.72;;;19.76;47.86
48053;BME280;33824;51.600;5.718;2022-09-03T07:01:07;100895.63;;;19.85;47.52
48053;BME280;33824;51.600;5.718;2022-09-03T07:03:33;100894.69;;;20.03;47.18
48053;BME280;33824;51.600;5.718;2022-09-03T07:06:04;100899.88;;;20.16;46.64
48053;BME280;33824;51.600;5.718;2022-09-03T07:08:30;100899.28;;;20.26;46.29
48053;BME280;33824;51.600;5.718;2022-09-03T07:11:01;100892.00;;;20.38;46.41
48053;BME280;33824;51.600;5.718;2022-09-03T07:13:31;100894.00;;;20.54;45.72
48053;BME280;33824;51.600;5.718;2022-09-03T07:16:10;100893.88;;;20.49;44.87
48053;BME280;33824;51.600;5.718;2022-09-03T07:18:36;100894.22;;;20.64;44.88
48053;BME280;33824;51.600;5.718;2022-09-03T07:21:08;100897.38;;;20.73;45.05
48053;BME280;33824;51.600;5.718;2022-09-03T07:23:35;100892.63;;;20.91;45.05
48053;BME280;33824;51.600;5.718;2022-09-03T07:26:07;100887.38;;;21.01;44.30
48053;BME280;33824;51.600;5.718;2022-09-03T07:28:37;100890.78;;;21.08;44.16
48053;BME280;33824;51.600;5.718;2022-09-03T07:31:08;100893.25;;;21.22;44.04
48053;BME280;33824;51.600;5.718;2022-09-03T07:33:36;100893.13;;;21.45;42.98
48053;BME280;33824;51.600;5.718;2022-09-03T07:36:07;100892.97;;;21.51;42.84
48053;BME280;33824;51.600;5.718;2022-09-03T07:38:33;100892.50;;;21.71;43.68
48053;BME280;33824;51.600;5.718;2022-09-03T07:41:01;100890.59;;;21.88;43.34
48053;BME280;33824;51.600;5.718;2022-09-03T07:43:27;100890.72;;;21.93;42.73
48053;BME280;33824;51.600;5.718;2022-09-03T07:45:54;100893.16;;;22.12;42.24
48053;BME280;33824;51.600;5.718;2022-09-03T07:48:22;100887.91;;;22.22;42.26
48053;BME280;33824;51.600;5.718;2022-09-03T07:50:47;100897.94;;;22.21;41.63
48053;BME280;33824;51.600;5.718;2022-09-03T07:53:16;100895.78;;;22.23;40.84
48053;BME280;33824;51.600;5.718;2022-09-03T07:55:42;100883.44;;;22.32;41.09
48053;BME280;33824;51.600;5.718;2022-09-03T07:58:11;100891.63;;;22.37;41.09
48053;BME280;33824;51.600;5.718;2022-09-03T08:00:39;100898.41;;;22.57;41.08
48053;BME280;33824;51.600;5.718;2022-09-03T08:03:05;100898.09;;;22.70;41.32
48053;BME280;33824;51.600;5.718;2022-09-03T08:05:35;100899.63;;;22.82;41.00
48053;BME280;33824;51.600;5.718;2022-09-03T08:08:02;100902.78;;;22.96;40.60
48053;BME280;33824;51.600;5.718;2022-09-03T08:10:28;100896.88;;;23.04;40.21
48053;BME280;33824;51.600;5.718;2022-09-03T08:12:56;100903.25;;;23.15;39.86
48053;BME280;33824;51.600;5.718;2022-09-03T08:15:24;100894.63;;;23.23;39.65
48053;BME280;33824;51.600;5.718;2022-09-03T08:17:50;100901.00;;;23.33;39.71
48053;BME280;33824;51.600;5.718;2022-09-03T08:20:16;100894.16;;;23.53;39.57
48053;BME280;33824;51.600;5.718;2022-09-03T08:22:42;100901.53;;;23.57;38.94
48053;BME280;33824;51.600;5.718;2022-09-03T08:25:08;100903.56;;;23.72;39.00
48053;BME280;33824;51.600;5.718;2022-09-03T08:27:33;100904.47;;;23.82;39.11
48053;BME280;33824;51.600;5.718;2022-09-03T08:29:59;100906.72;;;23.90;38.73
48053;BME280;33824;51.600;5.718;2022-09-03T08:32:25;100893.97;;;23.96;38.72
48053;BME280;33824;51.600;5.718;2022-09-03T08:34:50;100902.16;;;24.01;38.35
48053;BME280;33824;51.600;5.718;2022-09-03T08:37:16;100907.56;;;24.23;38.15
48053;BME280;33824;51.600;5.718;2022-09-03T08:39:43;100907.63;;;24.33;38.00
48053;BME280;33824;51.600;5.718;2022-09-03T08:42:19;100909.75;;;24.26;37.30
48053;BME280;33824;51.600;5.718;2022-09-03T08:44:56;100902.16;;;24.33;37.38
48053;BME280;33824;51.600;5.718;2022-09-03T08:49:56;100902.25;;;24.48;36.58
48053;BME280;33824;51.600;5.718;2022-09-03T08:55:41;100911.34;;;24.64;37.01
48053;BME280;33824;51.600;5.718;2022-09-03T08:57:54;100910.03;;;24.81;36.57
48053;BME280;33824;51.600;5.718;2022-09-03T09:00:21;100903.59;;;24.98;36.85
48053;BME280;33824;51.600;5.718;2022-09-03T09:03:12;100900.03;;;24.97;35.97
48053;BME280;33824;51.600;5.718;2022-09-03T09:13:58;100912.69;;;25.39;35.55
48053;BME280;33824;51.600;5.718;2022-09-03T09:16:37;100910.53;;;25.51;35.28
48053;BME280;33824;51.600;5.718;2022-09-03T09:21:52;100904.88;;;25.77;35.02
48053;BME280;33824;51.600;5.718;2022-09-03T09:24:24;100904.06;;;25.82;34.93
48053;BME280;33824;51.600;5.718;2022-09-03T09:26:59;100903.78;;;25.89;34.02
48053;BME280;33824;51.600;5.718;2022-09-03T09:29:31;100907.03;;;26.01;34.49
48053;BME280;33824;51.600;5.718;2022-09-03T09:31:57;100907.03;;;26.26;33.68
48053;BME280;33824;51.600;5.718;2022-09-03T09:34:22;100905.69;;;26.23;34.11
48053;BME280;33824;51.600;5.718;2022-09-03T09:36:53;100906.78;;;26.17;34.10
48053;BME280;33824;51.600;5.718;2022-09-03T09:39:19;100905.38;;;26.30;33.58
48053;BME280;33824;51.600;5.718;2022-09-03T09:42:04;100897.75;;;26.32;33.50
48053;BME280;33824;51.600;5.718;2022-09-03T09:44:33;100896.31;;;26.45;33.63
48053;BME280;33824;51.600;5.718;2022-09-03T09:47:04;100894.16;;;26.52;33.69
48053;BME280;33824;51.600;5.718;2022-09-03T09:49:32;100886.47;;;26.59;33.74
48053;BME280;33824;51.600;5.718;2022-09-03T09:52:07;100897.41;;;26.49;33.29
48053;BME280;33824;51.600;5.718;2022-09-03T09:54:33;100900.19;;;26.34;33.54
48053;BME280;33824;51.600;5.718;2022-09-03T09:57:02;100900.47;;;26.22;33.46
48053;BME280;33824;51.600;5.718;2022-09-03T09:59:29;100903.47;;;26.10;33.59
48053;BME280;33824;51.600;5.718;2022-09-03T10:02:11;100904.06;;;26.02;33.21
48053;BME280;33824;51.600;5.718;2022-09-03T10:04:38;100907.06;;;26.06;33.84
48053;BME280;33824;51.600;5.718;2022-09-03T10:07:17;100898.31;;;26.24;33.49
48053;BME280;33824;51.600;5.718;2022-09-03T10:10:00;100899.06;;;26.45;33.12
48053;BME280;33824;51.600;5.718;2022-09-03T10:12:32;100901.53;;;26.46;32.58
48053;BME280;33824;51.600;5.718;2022-09-03T10:18:18;100892.94;;;26.78;32.66
48053;BME280;33824;51.600;5.718;2022-09-03T10:21:01;100890.44;;;26.92;32.25
48053;BME280;33824;51.600;5.718;2022-09-03T10:23:34;100888.97;;;27.14;32.30
48053;BME280;33824;51.600;5.718;2022-09-03T10:26:09;100883.22;;;27.11;32.09
48053;BME280;33824;51.600;5.718;2022-09-03T10:28:38;100882.88;;;27.23;31.82
48053;BME280;33824;51.600;5.718;2022-09-03T10:31:16;100880.53;;;27.45;32.00
48053;BME280;33824;51.600;5.718;2022-09-03T10:33:55;100887.38;;;27.52;31.29
48053;BME280;33824;51.600;5.718;2022-09-03T10:36:27;100879.97;;;27.53;31.71
48053;BME280;33824;51.600;5.718;2022-09-03T10:49:31;100879.06;;;27.96;30.80
48053;BME280;33824;51.600;5.718;2022-09-03T10:52:18;100874.75;;;27.85;31.15
48053;BME280;33824;51.600;5.718;2022-09-03T10:57:32;100881.38;;;28.13;29.94
48053;BME280;33824;51.600;5.718;2022-09-03T11:00:05;100883.03;;;28.14;30.07
48053;BME280;33824;51.600;5.718;2022-09-03T11:07:45;100872.09;;;28.38;29.85
48053;BME280;33824;51.600;5.718;2022-09-03T11:10:25;100877.88;;;28.07;30.06
48053;BME280;33824;51.600;5.718;2022-09-03T11:15:49;100873.41;;;28.17;30.70
48053;BME280;33824;51.600;5.718;2022-09-03T11:18:24;100871.50;;;27.83;30.40
48053;BME280;33824;51.600;5.718;2022-09-03T11:20:57;100877.56;;;27.80;30.97
48053;BME280;33824;51.600;5.718;2022-09-03T11:23:27;100871.78;;;27.82;31.09
48053;BME280;33824;51.600;5.718;2022-09-03T11:25:55;100871.00;;;27.81;31.24
48053;BME280;33824;51.600;5.718;2022-09-03T11:28:41;100875.16;;;28.02;30.84
48053;BME280;33824;51.600;5.718;2022-09-03T11:31:28;100870.56;;;27.93;30.11
48053;BME280;33824;51.600;5.718;2022-09-03T11:33:59;100877.31;;;28.10;30.43
48053;BME280;33824;51.600;5.718;2022-09-03T11:36:32;100870.38;;;28.18;30.49
48053;BME280;33824;51.600;5.718;2022-09-03T11:38:58;100872.69;;;28.01;30.54
48053;BME280;33824;51.600;5.718;2022-09-03T11:41:33;100869.09;;;28.10;29.42
48053;BME280;33824;51.600;5.718;2022-09-03T11:44:17;100860.88;;;28.10;30.38
48053;BME280;33824;51.600;5.718;2022-09-03T11:46:54;100851.78;;;28.15;30.22
48053;BME280;33824;51.600;5.718;2022-09-03T11:49:44;100847.84;;;28.21;29.31
48053;BME280;33824;51.600;5.718;2022-09-03T11:52:11;100855.50;;;28.24;29.78
48053;BME280;33824;51.600;5.718;2022-09-03T11:54:44;100850.31;;;28.46;30.12
48053;BME280;33824;51.600;5.718;2022-09-03T11:57:14;100844.72;;;28.56;29.93
48053;BME280;33824;51.600;5.718;2022-09-03T11:59:41;100842.91;;;28.71;30.21
48053;BME280;33824;51.600;5.718;2022-09-03T12:02:27;100844.13;;;28.59;29.78
48053;BME280;33824;51.600;5.718;2022-09-03T12:05:21;100850.44;;;28.36;29.97
48053;BME280;33824;51.600;5.718;2022-09-03T12:08:07;100845.59;;;28.76;29.64
48053;BME280;33824;51.600;5.718;2022-09-03T12:13:12;100850.66;;;29.06;29.30
48053;BME280;33824;51.600;5.718;2022-09-03T12:18:45;100854.13;;;29.12;28.94
48053;BME280;33824;51.600;5.718;2022-09-03T12:21:15;100857.44;;;29.32;29.11
48053;BME280;33824;51.600;5.718;2022-09-03T12:23:42;100852.59;;;29.43;29.08
48053;BME280;33824;51.600;5.718;2022-09-03T12:26:27;100849.91;;;29.38;28.95
48053;BME280;33824;51.600;5.718;2022-09-03T12:28:56;100849.88;;;29.57;29.03
48053;BME280;33824;51.600;5.718;2022-09-03T12:31:28;100849.56;;;29.77;28.54
48053;BME280;33824;51.600;5.718;2022-09-03T12:33:58;100849.03;;;29.93;28.40
48053;BME280;33824;51.600;5.718;2022-09-03T12:36:25;100852.06;;;29.92;28.46
48053;BME280;33824;51.600;5.718;2022-09-03T12:38:51;100848.63;;;30.00;28.60
48053;BME280;33824;51.600;5.718;2022-09-03T12:41:28;100844.44;;;29.89;27.63
48053;BME280;33824;51.600;5.718;2022-09-03T12:43:57;100849.13;;;30.02;28.11
48053;BME280;33824;51.600;5.718;2022-09-03T12:46:29;100847.31;;;30.11;28.33
48053;BME280;33824;51.600;5.718;2022-09-03T12:48:56;100843.16;;;30.27;27.96
48053;BME280;33824;51.600;5.718;2022-09-03T12:51:31;100834.00;;;30.45;27.92
48053;BME280;33824;51.600;5.718;2022-09-03T12:53:57;100839.63;;;30.54;27.61
48053;BME280;33824;51.600;5.718;2022-09-03T12:56:24;100844.00;;;30.55;27.59
48053;BME280;33824;51.600;5.718;2022-09-03T12:58:56;100837.88;;;30.44;27.18
48053;BME280;33824;51.600;5.718;2022-09-03T13:01:30;100839.91;;;30.39;27.21
48053;BME280;33824;51.600;5.718;2022-09-03T13:04:18;100837.06;;;30.44;27.08
48053;BME280;33824;51.600;5.718;2022-09-03T13:07:31;100836.63;;;30.37;26.79
48053;BME280;33824;51.600;5.718;2022-09-03T13:10:06;100833.88;;;30.37;27.57
48053;BME280;33824;51.600;5.718;2022-09-03T13:12:45;100830.22;;;30.28;26.71
48053;BME280;33824;51.600;5.718;2022-09-03T13:15:22;100840.00;;;30.20;27.13
48053;BME280;33824;51.600;5.718;2022-09-03T13:18:00;100833.06;;;30.36;27.12
48053;BME280;33824;51.600;5.718;2022-09-03T13:23:25;100825.41;;;30.88;26.75
48053;BME280;33824;51.600;5.718;2022-09-03T13:26:22;100827.03;;;30.89;26.38
48053;BME280;33824;51.600;5.718;2022-09-03T13:31:40;100832.59;;;30.98;26.27
48053;BME280;33824;51.600;5.718;2022-09-03T13:34:34;100828.78;;;30.85;26.36
48053;BME280;33824;51.600;5.718;2022-09-03T13:39:56;100818.97;;;30.92;26.10
48053;BME280;33824;51.600;5.718;2022-09-03T13:42:35;100818.06;;;30.83;26.62
48053;BME280;33824;51.600;5.718;2022-09-03T13:45:38;100812.50;;;30.97;26.47
48053;BME280;33824;51.600;5.718;2022-09-03T13:48:21;100810.97;;;30.69;25.90
48053;BME280;33824;51.600;5.718;2022-09-03T13:51:30;100816.56;;;30.64;26.88
48053;BME280;33824;51.600;5.718;2022-09-03T13:54:10;100815.59;;;30.82;26.84
48053;BME280;33824;51.600;5.718;2022-09-03T13:56:49;100814.19;;;30.84;26.77
48053;BME280;33824;51.600;5.718;2022-09-03T14:02:12;100808.34;;;30.86;26.13
48053;BME280;33824;51.600;5.718;2022-09-03T14:04:54;100812.00;;;30.95;26.47
48053;BME280;33824;51.600;5.718;2022-09-03T14:07:45;100820.69;;;30.88;26.56
48053;BME280;33824;51.600;5.718;2022-09-03T14:15:41;100813.59;;;31.23;25.75
48053;BME280;33824;51.600;5.718;2022-09-03T14:18:36;100814.88;;;31.04;25.94
48053;BME280;33824;51.600;5.718;2022-09-03T14:21:21;100813.75;;;31.05;25.76
48053;BME280;33824;51.600;5.718;2022-09-03T14:27:10;100821.34;;;31.21;25.67
48053;BME280;33824;51.600;5.718;2022-09-03T14:29:36;100815.38;;;31.28;25.12
48053;BME280;33824;51.600;5.718;2022-09-03T14:32:26;100816.22;;;30.92;25.55
48053;BME280;33824;51.600;5.718;2022-09-03T14:35:09;100823.16;;;30.76;25.56
48053;BME280;33824;51.600;5.718;2022-09-03T14:40:49;100820.44;;;30.35;26.37
48053;BME280;33824;51.600;5.718;2022-09-03T14:46:14;100817.06;;;30.52;26.02
48053;BME280;33824;51.600;5.718;2022-09-03T14:51:30;100818.28;;;30.60;26.14
48053;BME280;33824;51.600;5.718;2022-09-03T14:56:57;100811.25;;;30.67;26.23
48053;BME280;33824;51.600;5.718;2022-09-03T14:59:51;100808.50;;;30.67;26.44
48053;BME280;33824;51.600;5.718;2022-09-03T15:05:09;100809.72;;;30.75;26.42
48053;BME280;33824;51.600;5.718;2022-09-03T15:07:44;100804.09;;;30.80;26.19
48053;BME280;33824;51.600;5.718;2022-09-03T15:10:36;100808.25;;;30.91;26.49
48053;BME280;33824;51.600;5.718;2022-09-03T15:18:26;100796.63;;;31.08;26.82